Terminal Aerodrome Forecast
Issued by NWS Upton, NY

Home | Current Version | Previous Version | Text Only | Print | Product List | Glossary On
Versions: 1 2 3 4 5 6 7 8 9 10 11 12 13 14 15 16 17 18 19 20 21 22 23 24 25 26 27 28 29 30
000
FTUS41 KOKX 281730 CCA
TAFBDR
TAF COR
KBDR 281730Z 2818/2918 21008KT P6SM SCT015 SCT050
      TEMPO 2818/2819 BKN015
     FM281900 18009KT P6SM VCTS BKN050CB BKN250
      TEMPO 2819/2822 28012G22KT 4SM -TSRA BR
     FM282200 26005KT P6SM BKN050 BKN250
     FM290100 VRB04KT P6SM FEW100 BKN250
     FM290400 VRB03KT 5SM BR SKC
     FM291300 06005KT P6SM SKC
     FM291600 11008KT P6SM FEW050=

USA.gov is the U.S. government's official web portal to all federal, state and local government web resources and services.